sensor_id;sensor_type;location;lat;lon;timestamp;P1;durP1;ratioP1;P2;durP2;ratioP2
12770;SDS011;6449;47.666;9.160;2023-04-25T00:01:17;4.33;;;2.90;;
12770;SDS011;6449;47.666;9.160;2023-04-25T00:06:10;5.53;;;3.00;;
12770;SDS011;6449;47.666;9.160;2023-04-25T00:11:04;5.90;;;3.20;;
12770;SDS011;6449;47.666;9.160;2023-04-25T00:15:59;3.93;;;2.90;;
12770;SDS011;6449;47.666;9.160;2023-04-25T00:20:54;4.33;;;2.97;;
12770;SDS011;6449;47.666;9.160;2023-04-25T00:25:48;5.77;;;3.23;;
12770;SDS011;6449;47.666;9.160;2023-04-25T00:30:43;4.90;;;2.87;;
12770;SDS011;6449;47.666;9.160;2023-04-25T00:35:38;9.57;;;4.10;;
12770;SDS011;6449;47.666;9.160;2023-04-25T00:40:31;3.33;;;2.70;;
12770;SDS011;6449;47.666;9.160;2023-04-25T00:45:27;4.33;;;3.27;;
12770;SDS011;6449;47.666;9.160;2023-04-25T00:50:21;5.30;;;2.90;;
12770;SDS011;6449;47.666;9.160;2023-04-25T00:55:17;5.03;;;2.57;;
12770;SDS011;6449;47.666;9.160;2023-04-25T01:00:11;7.13;;;2.90;;
12770;SDS011;6449;47.666;9.160;2023-04-25T01:05:06;5.07;;;2.80;;
12770;SDS011;6449;47.666;9.160;2023-04-25T01:10:00;3.83;;;2.37;;
12770;SDS011;6449;47.666;9.160;2023-04-25T01:14:56;4.03;;;2.50;;
12770;SDS011;6449;47.666;9.160;2023-04-25T01:19:50;5.50;;;2.67;;
12770;SDS011;6449;47.666;9.160;2023-04-25T01:24:46;4.80;;;2.67;;
12770;SDS011;6449;47.666;9.160;2023-04-25T01:29:40;4.03;;;2.30;;
12770;SDS011;6449;47.666;9.160;2023-04-25T01:34:34;2.63;;;2.30;;
12770;SDS011;6449;47.666;9.160;2023-04-25T01:39:27;3.33;;;2.10;;
12770;SDS011;6449;47.666;9.160;2023-04-25T01:44:22;5.97;;;2.60;;
12770;SDS011;6449;47.666;9.160;2023-04-25T01:49:18;3.57;;;2.20;;
12770;SDS011;6449;47.666;9.160;2023-04-25T01:54:11;3.70;;;2.80;;
12770;SDS011;6449;47.666;9.160;2023-04-25T01:59:06;5.57;;;2.30;;
12770;SDS011;6449;47.666;9.160;2023-04-25T02:04:01;3.90;;;1.87;;
12770;SDS011;6449;47.666;9.160;2023-04-25T02:08:55;4.40;;;2.57;;
12770;SDS011;6449;47.666;9.160;2023-04-25T02:13:48;4.80;;;2.87;;
12770;SDS011;6449;47.666;9.160;2023-04-25T02:18:42;2.40;;;2.20;;
12770;SDS011;6449;47.666;9.160;2023-04-25T02:23:37;4.93;;;2.40;;
12770;SDS011;6449;47.666;9.160;2023-04-25T02:28:30;2.70;;;2.37;;
12770;SDS011;6449;47.666;9.160;2023-04-25T02:33:24;3.23;;;2.60;;
12770;SDS011;6449;47.666;9.160;2023-04-25T02:38:17;4.50;;;2.60;;
12770;SDS011;6449;47.666;9.160;2023-04-25T02:43:12;2.97;;;2.67;;
12770;SDS011;6449;47.666;9.160;2023-04-25T02:48:05;3.30;;;3.00;;
12770;SDS011;6449;47.666;9.160;2023-04-25T02:52:59;5.73;;;3.23;;
12770;SDS011;6449;47.666;9.160;2023-04-25T02:57:52;6.13;;;3.40;;
12770;SDS011;6449;47.666;9.160;2023-04-25T03:02:48;4.53;;;2.70;;
12770;SDS011;6449;47.666;9.160;2023-04-25T03:07:42;3.40;;;3.10;;
12770;SDS011;6449;47.666;9.160;2023-04-25T03:12:37;6.77;;;3.10;;
12770;SDS011;6449;47.666;9.160;2023-04-25T03:17:30;5.40;;;3.17;;
12770;SDS011;6449;47.666;9.160;2023-04-25T03:22:25;6.23;;;3.03;;
12770;SDS011;6449;47.666;9.160;2023-04-25T03:27:21;4.40;;;3.37;;
12770;SDS011;6449;47.666;9.160;2023-04-25T03:32:14;4.87;;;3.43;;
12770;SDS011;6449;47.666;9.160;2023-04-25T03:37:08;4.13;;;3.10;;
12770;SDS011;6449;47.666;9.160;2023-04-25T03:42:03;3.83;;;2.90;;
12770;SDS011;6449;47.666;9.160;2023-04-25T03:46:56;3.47;;;3.07;;
12770;SDS011;6449;47.666;9.160;2023-04-25T03:51:50;5.37;;;3.10;;
12770;SDS011;6449;47.666;9.160;2023-04-25T03:56:43;10.47;;;3.30;;
12770;SDS011;6449;47.666;9.160;2023-04-25T04:01:38;7.07;;;3.10;;
12770;SDS011;6449;47.666;9.160;2023-04-25T04:06:31;3.40;;;3.10;;
12770;SDS011;6449;47.666;9.160;2023-04-25T04:11:25;3.37;;;2.90;;
12770;SDS011;6449;47.666;9.160;2023-04-25T04:16:18;7.43;;;3.10;;
12770;SDS011;6449;47.666;9.160;2023-04-25T04:21:13;3.37;;;2.93;;
12770;SDS011;6449;47.666;9.160;2023-04-25T04:26:07;4.10;;;3.10;;
12770;SDS011;6449;47.666;9.160;2023-04-25T04:31:01;7.57;;;3.23;;
12770;SDS011;6449;47.666;9.160;2023-04-25T04:35:55;3.87;;;2.93;;
12770;SDS011;6449;47.666;9.160;2023-04-25T04:40:50;4.00;;;3.10;;
12770;SDS011;6449;47.666;9.160;2023-04-25T04:45:43;4.00;;;3.23;;
12770;SDS011;6449;47.666;9.160;2023-04-25T04:50:37;7.10;;;3.27;;
12770;SDS011;6449;47.666;9.160;2023-04-25T04:55:31;7.37;;;3.33;;
12770;SDS011;6449;47.666;9.160;2023-04-25T05:00:29;3.80;;;3.07;;
12770;SDS011;6449;47.666;9.160;2023-04-25T05:05:23;4.93;;;2.80;;
12770;SDS011;6449;47.666;9.160;2023-04-25T05:10:17;4.53;;;3.20;;
12770;SDS011;6449;47.666;9.160;2023-04-25T05:15:11;4.27;;;3.30;;
12770;SDS011;6449;47.666;9.160;2023-04-25T05:20:08;4.33;;;3.53;;
12770;SDS011;6449;47.666;9.160;2023-04-25T05:25:02;4.50;;;3.10;;
12770;SDS011;6449;47.666;9.160;2023-04-25T05:29:56;6.10;;;3.30;;
12770;SDS011;6449;47.666;9.160;2023-04-25T05:34:50;7.53;;;3.80;;
12770;SDS011;6449;47.666;9.160;2023-04-25T05:39:45;8.13;;;4.20;;
12770;SDS011;6449;47.666;9.160;2023-04-25T05:44:39;4.33;;;3.60;;
12770;SDS011;6449;47.666;9.160;2023-04-25T05:49:33;4.40;;;3.50;;
12770;SDS011;6449;47.666;9.160;2023-04-25T05:54:27;5.37;;;4.30;;
12770;SDS011;6449;47.666;9.160;2023-04-25T05:59:21;5.63;;;4.33;;
12770;SDS011;6449;47.666;9.160;2023-04-25T06:04:15;6.67;;;3.97;;
12770;SDS011;6449;47.666;9.160;2023-04-25T06:09:12;4.87;;;4.00;;
12770;SDS011;6449;47.666;9.160;2023-04-25T06:14:05;5.67;;;3.57;;
12770;SDS011;6449;47.666;9.160;2023-04-25T06:19:00;5.37;;;3.43;;
12770;SDS011;6449;47.666;9.160;2023-04-25T06:23:53;6.07;;;3.93;;
12770;SDS011;6449;47.666;9.160;2023-04-25T06:28:49;3.80;;;3.47;;
12770;SDS011;6449;47.666;9.160;2023-04-25T06:33:43;3.90;;;3.50;;
12770;SDS011;6449;47.666;9.160;2023-04-25T06:38:37;3.50;;;2.93;;
12770;SDS011;6449;47.666;9.160;2023-04-25T06:43:31;7.27;;;3.00;;
12770;SDS011;6449;47.666;9.160;2023-04-25T06:48:25;5.87;;;3.00;;
12770;SDS011;6449;47.666;9.160;2023-04-25T06:53:18;5.53;;;4.20;;
12770;SDS011;6449;47.666;9.160;2023-04-25T06:58:13;7.73;;;3.40;;
12770;SDS011;6449;47.666;9.160;2023-04-25T07:03:06;8.07;;;4.50;;
12770;SDS011;6449;47.666;9.160;2023-04-25T07:08:00;5.10;;;3.70;;
12770;SDS011;6449;47.666;9.160;2023-04-25T07:12:54;5.50;;;3.83;;
12770;SDS011;6449;47.666;9.160;2023-04-25T07:17:49;6.07;;;4.03;;
12770;SDS011;6449;47.666;9.160;2023-04-25T07:22:43;7.67;;;4.30;;
12770;SDS011;6449;47.666;9.160;2023-04-25T07:27:36;5.47;;;3.50;;
12770;SDS011;6449;47.666;9.160;2023-04-25T07:37:38;5.03;;;3.30;;
12770;SDS011;6449;47.666;9.160;2023-04-25T07:52:36;3.07;;;2.77;;
12770;SDS011;6449;47.666;9.160;2023-04-25T07:57:31;3.60;;;3.00;;
12770;SDS011;6449;47.666;9.160;2023-04-25T08:02:24;3.67;;;3.10;;
12770;SDS011;6449;47.666;9.160;2023-04-25T08:07:19;4.17;;;3.37;;
12770;SDS011;6449;47.666;9.160;2023-04-25T08:17:21;5.13;;;3.57;;
12770;SDS011;6449;47.666;9.160;2023-04-25T09:03:33;5.00;;;3.60;;
12770;SDS011;6449;47.666;9.160;2023-04-25T09:13:36;4.43;;;3.47;;
12770;SDS011;6449;47.666;9.160;2023-04-25T09:18:31;4.83;;;3.33;;
12770;SDS011;6449;47.666;9.160;2023-04-25T09:28:22;3.83;;;2.90;;
12770;SDS011;6449;47.666;9.160;2023-04-25T09:43:58;2.33;;;2.13;;
12770;SDS011;6449;47.666;9.160;2023-04-25T09:48:52;2.70;;;2.50;;
12770;SDS011;6449;47.666;9.160;2023-04-25T09:59:26;2.03;;;1.83;;
12770;SDS011;6449;47.666;9.160;2023-04-25T10:04:24;3.20;;;1.67;;
12770;SDS011;6449;47.666;9.160;2023-04-25T10:09:24;1.53;;;1.43;;
12770;SDS011;6449;47.666;9.160;2023-04-25T10:14:23;1.50;;;1.40;;
12770;SDS011;6449;47.666;9.160;2023-04-25T10:19:18;1.33;;;1.23;;
12770;SDS011;6449;47.666;9.160;2023-04-25T10:24:13;1.87;;;1.20;;
12770;SDS011;6449;47.666;9.160;2023-04-25T10:29:07;2.07;;;1.23;;
12770;SDS011;6449;47.666;9.160;2023-04-25T10:34:02;1.30;;;1.20;;
12770;SDS011;6449;47.666;9.160;2023-04-25T10:44:06;1.27;;;1.17;;
12770;SDS011;6449;47.666;9.160;2023-04-25T10:49:01;1.77;;;1.00;;
12770;SDS011;6449;47.666;9.160;2023-04-25T10:53:59;1.23;;;0.97;;
12770;SDS011;6449;47.666;9.160;2023-04-25T10:59:06;0.70;;;0.70;;
12770;SDS011;6449;47.666;9.160;2023-04-25T11:04:03;0.70;;;0.70;;
12770;SDS011;6449;47.666;9.160;2023-04-25T11:08:57;0.70;;;0.70;;
12770;SDS011;6449;47.666;9.160;2023-04-25T11:13:53;0.40;;;0.40;;
12770;SDS011;6449;47.666;9.160;2023-04-25T11:18:48;0.63;;;0.60;;
12770;SDS011;6449;47.666;9.160;2023-04-25T11:23:44;2.40;;;0.50;;
12770;SDS011;6449;47.666;9.160;2023-04-25T11:28:39;0.40;;;0.40;;
12770;SDS011;6449;47.666;9.160;2023-04-25T11:33:32;0.53;;;0.50;;
12770;SDS011;6449;47.666;9.160;2023-04-25T11:38:27;1.87;;;0.40;;
12770;SDS011;6449;47.666;9.160;2023-04-25T11:43:21;0.50;;;0.50;;
12770;SDS011;6449;47.666;9.160;2023-04-25T11:48:15;0.50;;;0.50;;
12770;SDS011;6449;47.666;9.160;2023-04-25T11:53:12;0.53;;;0.43;;
12770;SDS011;6449;47.666;9.160;2023-04-25T11:58:06;0.40;;;0.40;;
12770;SDS011;6449;47.666;9.160;2023-04-25T12:03:00;0.50;;;0.40;;
12770;SDS011;6449;47.666;9.160;2023-04-25T12:07:54;0.60;;;0.37;;
12770;SDS011;6449;47.666;9.160;2023-04-25T12:12:48;0.27;;;0.27;;
12770;SDS011;6449;47.666;9.160;2023-04-25T12:17:44;0.80;;;0.60;;
12770;SDS011;6449;47.666;9.160;2023-04-25T12:22:40;0.40;;;0.40;;
12770;SDS011;6449;47.666;9.160;2023-04-25T12:27:36;2.93;;;0.50;;
12770;SDS011;6449;47.666;9.160;2023-04-25T12:32:31;0.90;;;0.50;;
12770;SDS011;6449;47.666;9.160;2023-04-25T12:37:26;0.60;;;0.60;;
12770;SDS011;6449;47.666;9.160;2023-04-25T12:42:21;1.17;;;0.50;;
12770;SDS011;6449;47.666;9.160;2023-04-25T12:47:14;0.30;;;0.30;;
12770;SDS011;6449;47.666;9.160;2023-04-25T12:52:08;0.87;;;0.50;;
12770;SDS011;6449;47.666;9.160;2023-04-25T12:57:02;0.60;;;0.60;;
12770;SDS011;6449;47.666;9.160;2023-04-25T13:01:56;0.40;;;0.40;;
12770;SDS011;6449;47.666;9.160;2023-04-25T13:06:49;1.37;;;0.67;;
12770;SDS011;6449;47.666;9.160;2023-04-25T13:11:43;0.77;;;0.53;;
12770;SDS011;6449;47.666;9.160;2023-04-25T13:16:38;0.67;;;0.67;;
12770;SDS011;6449;47.666;9.160;2023-04-25T13:21:32;2.33;;;1.03;;
12770;SDS011;6449;47.666;9.160;2023-04-25T13:26:25;0.70;;;0.60;;
12770;SDS011;6449;47.666;9.160;2023-04-25T13:31:19;0.73;;;0.60;;
12770;SDS011;6449;47.666;9.160;2023-04-25T13:36:14;0.97;;;0.70;;
12770;SDS011;6449;47.666;9.160;2023-04-25T13:41:07;1.43;;;1.10;;
12770;SDS011;6449;47.666;9.160;2023-04-25T13:46:02;1.00;;;0.80;;
12770;SDS011;6449;47.666;9.160;2023-04-25T13:50:56;1.07;;;1.00;;
12770;SDS011;6449;47.666;9.160;2023-04-25T13:55:51;1.10;;;0.90;;
12770;SDS011;6449;47.666;9.160;2023-04-25T14:00:44;1.20;;;1.10;;
12770;SDS011;6449;47.666;9.160;2023-04-25T14:05:38;1.90;;;0.93;;
12770;SDS011;6449;47.666;9.160;2023-04-25T14:10:32;1.67;;;1.00;;
12770;SDS011;6449;47.666;9.160;2023-04-25T14:15:27;1.50;;;0.90;;
12770;SDS011;6449;47.666;9.160;2023-04-25T14:20:20;2.57;;;1.00;;
12770;SDS011;6449;47.666;9.160;2023-04-25T14:25:15;0.80;;;0.80;;
12770;SDS011;6449;47.666;9.160;2023-04-25T14:30:09;2.20;;;1.00;;
12770;SDS011;6449;47.666;9.160;2023-04-25T14:35:05;1.20;;;1.10;;
12770;SDS011;6449;47.666;9.160;2023-04-25T14:39:59;1.50;;;1.37;;
12770;SDS011;6449;47.666;9.160;2023-04-25T14:44:52;2.00;;;1.10;;
12770;SDS011;6449;47.666;9.160;2023-04-25T14:49:46;1.07;;;1.03;;
12770;SDS011;6449;47.666;9.160;2023-04-25T14:54:46;0.80;;;0.80;;
12770;SDS011;6449;47.666;9.160;2023-04-25T14:59:40;0.77;;;0.70;;
12770;SDS011;6449;47.666;9.160;2023-04-25T15:04:34;1.00;;;0.73;;
12770;SDS011;6449;47.666;9.160;2023-04-25T15:09:27;1.17;;;1.07;;
12770;SDS011;6449;47.666;9.160;2023-04-25T15:14:22;1.43;;;0.80;;
12770;SDS011;6449;47.666;9.160;2023-04-25T15:19:16;1.27;;;0.90;;
12770;SDS011;6449;47.666;9.160;2023-04-25T15:24:09;2.20;;;1.60;;
12770;SDS011;6449;47.666;9.160;2023-04-25T15:29:03;0.93;;;0.83;;
12770;SDS011;6449;47.666;9.160;2023-04-25T15:33:59;1.30;;;1.20;;
12770;SDS011;6449;47.666;9.160;2023-04-25T15:38:53;1.20;;;1.00;;
12770;SDS011;6449;47.666;9.160;2023-04-25T15:43:47;1.97;;;1.10;;
12770;SDS011;6449;47.666;9.160;2023-04-25T15:48:40;1.57;;;1.03;;
12770;SDS011;6449;47.666;9.160;2023-04-25T15:53:35;2.00;;;1.20;;
12770;SDS011;6449;47.666;9.160;2023-04-25T15:58:28;1.63;;;1.13;;
12770;SDS011;6449;47.666;9.160;2023-04-25T16:03:22;1.40;;;1.30;;
12770;SDS011;6449;47.666;9.160;2023-04-25T16:08:15;3.33;;;1.37;;
12770;SDS011;6449;47.666;9.160;2023-04-25T16:13:10;2.07;;;1.37;;
12770;SDS011;6449;47.666;9.160;2023-04-25T16:18:04;2.27;;;1.13;;
12770;SDS011;6449;47.666;9.160;2023-04-25T16:22:58;1.20;;;1.10;;
12770;SDS011;6449;47.666;9.160;2023-04-25T16:27:51;1.07;;;1.07;;
12770;SDS011;6449;47.666;9.160;2023-04-25T16:32:46;0.70;;;0.70;;
12770;SDS011;6449;47.666;9.160;2023-04-25T16:37:40;2.07;;;0.83;;
12770;SDS011;6449;47.666;9.160;2023-04-25T16:42:34;1.30;;;1.03;;
12770;SDS011;6449;47.666;9.160;2023-04-25T16:47:28;0.73;;;0.73;;
12770;SDS011;6449;47.666;9.160;2023-04-25T16:52:23;0.80;;;0.80;;
12770;SDS011;6449;47.666;9.160;2023-04-25T16:57:16;0.70;;;0.70;;
12770;SDS011;6449;47.666;9.160;2023-04-25T17:02:11;0.70;;;0.70;;
12770;SDS011;6449;47.666;9.160;2023-04-25T17:07:06;2.23;;;0.80;;
12770;SDS011;6449;47.666;9.160;2023-04-25T17:12:01;0.70;;;0.70;;
12770;SDS011;6449;47.666;9.160;2023-04-25T17:16:55;1.00;;;0.80;;
12770;SDS011;6449;47.666;9.160;2023-04-25T17:21:49;0.70;;;0.70;;
12770;SDS011;6449;47.666;9.160;2023-04-25T17:26:42;0.70;;;0.70;;
12770;SDS011;6449;47.666;9.160;2023-04-25T17:31:40;0.77;;;0.70;;
12770;SDS011;6449;47.666;9.160;2023-04-25T17:36:34;0.80;;;0.80;;
12770;SDS011;6449;47.666;9.160;2023-04-25T17:41:27;0.70;;;0.60;;
12770;SDS011;6449;47.666;9.160;2023-04-25T17:46:21;0.80;;;0.80;;
12770;SDS011;6449;47.666;9.160;2023-04-25T17:51:15;1.47;;;1.00;;
12770;SDS011;6449;47.666;9.160;2023-04-25T17:56:09;0.70;;;0.70;;
12770;SDS011;6449;47.666;9.160;2023-04-25T18:01:17;1.47;;;0.80;;
12770;SDS011;6449;47.666;9.160;2023-04-25T18:06:10;1.20;;;1.10;;
12770;SDS011;6449;47.666;9.160;2023-04-25T18:11:05;0.83;;;0.83;;
12770;SDS011;6449;47.666;9.160;2023-04-25T18:21:21;0.90;;;0.90;;
12770;SDS011;6449;47.666;9.160;2023-04-25T18:27:18;1.03;;;0.90;;
12770;SDS011;6449;47.666;9.160;2023-04-25T18:32:11;2.20;;;1.00;;
12770;SDS011;6449;47.666;9.160;2023-04-25T18:37:05;1.20;;;1.10;;
12770;SDS011;6449;47.666;9.160;2023-04-25T18:41:58;1.70;;;1.00;;
12770;SDS011;6449;47.666;9.160;2023-04-25T18:46:58;1.40;;;1.03;;
12770;SDS011;6449;47.666;9.160;2023-04-25T18:51:52;0.80;;;0.77;;
12770;SDS011;6449;47.666;9.160;2023-04-25T18:56:47;1.30;;;1.13;;
12770;SDS011;6449;47.666;9.160;2023-04-25T19:01:41;1.20;;;1.00;;
12770;SDS011;6449;47.666;9.160;2023-04-25T19:06:36;1.10;;;1.10;;
12770;SDS011;6449;47.666;9.160;2023-04-25T19:11:30;1.67;;;1.50;;
12770;SDS011;6449;47.666;9.160;2023-04-25T19:16:23;1.63;;;1.33;;
12770;SDS011;6449;47.666;9.160;2023-04-25T19:21:20;1.40;;;1.30;;
12770;SDS011;6449;47.666;9.160;2023-04-25T19:26:15;1.47;;;1.00;;
12770;SDS011;6449;47.666;9.160;2023-04-25T19:31:09;1.40;;;1.30;;
12770;SDS011;6449;47.666;9.160;2023-04-25T19:36:03;1.63;;;1.07;;
12770;SDS011;6449;47.666;9.160;2023-04-25T19:40:57;3.23;;;1.20;;
12770;SDS011;6449;47.666;9.160;2023-04-25T19:45:52;0.90;;;0.90;;
12770;SDS011;6449;47.666;9.160;2023-04-25T19:50:45;1.17;;;0.87;;
12770;SDS011;6449;47.666;9.160;2023-04-25T19:55:39;0.93;;;0.83;;
12770;SDS011;6449;47.666;9.160;2023-04-25T20:00:32;2.30;;;1.00;;
12770;SDS011;6449;47.666;9.160;2023-04-25T20:05:27;1.47;;;0.90;;
12770;SDS011;6449;47.666;9.160;2023-04-25T20:10:22;1.50;;;1.40;;
12770;SDS011;6449;47.666;9.160;2023-04-25T20:15:16;3.70;;;1.30;;
12770;SDS011;6449;47.666;9.160;2023-04-25T20:20:10;1.17;;;1.07;;
12770;SDS011;6449;47.666;9.160;2023-04-25T20:25:06;1.20;;;1.10;;
12770;SDS011;6449;47.666;9.160;2023-04-25T20:30:01;2.13;;;1.10;;
12770;SDS011;6449;47.666;9.160;2023-04-25T20:34:58;1.30;;;1.20;;
12770;SDS011;6449;47.666;9.160;2023-04-25T20:39:54;1.40;;;1.30;;
12770;SDS011;6449;47.666;9.160;2023-04-25T20:44:53;1.73;;;1.40;;
12770;SDS011;6449;47.666;9.160;2023-04-25T21:25:54;1.63;;;1.30;;
12770;SDS011;6449;47.666;9.160;2023-04-25T21:30:49;1.43;;;1.30;;
12770;SDS011;6449;47.666;9.160;2023-04-25T21:35:51;1.60;;;1.50;;
12770;SDS011;6449;47.666;9.160;2023-04-25T21:40:44;1.90;;;1.50;;
12770;SDS011;6449;47.666;9.160;2023-04-25T21:45:41;2.43;;;1.33;;
12770;SDS011;6449;47.666;9.160;2023-04-25T21:51:03;2.13;;;1.73;;
12770;SDS011;6449;47.666;9.160;2023-04-25T21:56:15;1.70;;;1.60;;
12770;SDS011;6449;47.666;9.160;2023-04-25T22:01:19;2.77;;;1.97;;
12770;SDS011;6449;47.666;9.160;2023-04-25T22:11:42;1.80;;;1.70;;
12770;SDS011;6449;47.666;9.160;2023-04-25T22:16:39;2.10;;;1.90;;
12770;SDS011;6449;47.666;9.160;2023-04-25T22:21:32;1.97;;;1.87;;
12770;SDS011;6449;47.666;9.160;2023-04-25T22:26:27;1.70;;;1.60;;
12770;SDS011;6449;47.666;9.160;2023-04-25T22:31:20;1.70;;;1.60;;
12770;SDS011;6449;47.666;9.160;2023-04-25T22:36:14;1.60;;;1.50;;
12770;SDS011;6449;47.666;9.160;2023-04-25T22:41:08;1.60;;;1.50;;
12770;SDS011;6449;47.666;9.160;2023-04-25T22:46:03;1.67;;;1.47;;
12770;SDS011;6449;47.666;9.160;2023-04-25T22:51:02;1.80;;;1.63;;
12770;SDS011;6449;47.666;9.160;2023-04-25T22:55:56;1.83;;;1.63;;
12770;SDS011;6449;47.666;9.160;2023-04-25T23:00:50;1.53;;;1.40;;
12770;SDS011;6449;47.666;9.160;2023-04-25T23:05:46;4.70;;;2.63;;
12770;SDS011;6449;47.666;9.160;2023-04-25T23:10:39;2.30;;;1.63;;
12770;SDS011;6449;47.666;9.160;2023-04-25T23:15:33;1.63;;;1.53;;
12770;SDS011;6449;47.666;9.160;2023-04-25T23:20:26;1.40;;;1.30;;
12770;SDS011;6449;47.666;9.160;2023-04-25T23:25:21;1.77;;;1.50;;
12770;SDS011;6449;47.666;9.160;2023-04-25T23:30:15;2.07;;;1.60;;
12770;SDS011;6449;47.666;9.160;2023-04-25T23:35:08;1.17;;;1.10;;
12770;SDS011;6449;47.666;9.160;2023-04-25T23:40:03;2.43;;;1.50;;
12770;SDS011;6449;47.666;9.160;2023-04-25T23:45:01;1.40;;;1.23;;
12770;SDS011;6449;47.666;9.160;2023-04-25T23:49:56;1.40;;;1.30;;
12770;SDS011;6449;47.666;9.160;2023-04-25T23:54:49;1.73;;;1.50;;
12770;SDS011;6449;47.666;9.160;2023-04-25T23:59:43;2.23;;;1.47;;
